Time;durP1;ratioP1;P1;durP2;ratioP2;P2;SDS_P1;SDS_P2;PMS_P1;PMS_P2;Temp;Humidity;BMP_temperature;BMP_pressure;BME280_temperature;BME280_humidity;BME280_pressure;Samples;Min_cycle;Max_cycle;Signal;HPM_P1;HPM_P2
2023/03/10 00:01:23;;;;;;;17.50;10.00;;;;;;;1.11;100.00;98448.70;106952;1259;61220;-70
2023/03/10 00:03:50;;;;;;;18.30;10.70;;;;;;;1.11;100.00;98438.62;108139;1259;61053;-69
2023/03/10 00:06:20;;;;;;;16.50;10.20;;;;;;;1.11;100.00;98432.16;107359;1260;74452;-71
2023/03/10 00:08:47;;;;;;;15.40;9.20;;;;;;;1.11;100.00;98428.89;106187;1266;71293;-70
2023/03/10 00:11:15;;;;;;;16.00;9.60;;;;;;;1.11;100.00;98421.33;106362;1266;73416;-69
2023/03/10 00:13:47;;;;;;;16.00;9.50;;;;;;;1.11;100.00;98415.98;106295;1260;61280;-70
2023/03/10 00:16:22;;;;;;;15.10;9.10;;;;;;;1.08;100.00;98412.48;106238;1263;61161;-70
2023/03/10 00:18:51;;;;;;;15.60;9.30;;;;;;;1.06;100.00;98405.05;105799;1266;74665;-70
2023/03/10 00:21:20;;;;;;;16.10;9.20;;;;;;;1.06;100.00;98396.38;106051;1260;70075;-71
2023/03/10 00:23:50;;;;;;;14.60;8.90;;;;;;;1.06;100.00;98388.74;105950;1263;72030;-70
2023/03/10 00:26:20;;;;;;;14.20;8.60;;;;;;;1.05;100.00;98375.44;106041;1262;61263;-70
2023/03/10 00:28:49;;;;;;;13.70;8.40;;;;;;;1.03;100.00;98368.83;106050;1260;61193;-70
2023/03/10 00:31:20;;;;;;;14.10;8.80;;;;;;;1.03;100.00;98364.48;106065;1261;73205;-70
2023/03/10 00:33:47;;;;;;;12.40;7.80;;;;;;;1.02;100.00;98359.04;105883;1266;72404;-71
2023/03/10 00:36:17;;;;;;;14.90;8.10;;;;;;;1.03;100.00;98356.12;106219;1262;71240;-69
2023/03/10 00:38:51;;;;;;;11.50;7.20;;;;;;;1.05;100.00;98350.20;105871;1260;61494;-70
2023/03/10 00:41:25;;;;;;;11.80;7.00;;;;;;;1.05;100.00;98343.25;106132;1266;61271;-71
2023/03/10 00:43:52;;;;;;;12.00;7.40;;;;;;;1.04;100.00;98339.46;106043;1264;72437;-71
2023/03/10 00:46:20;;;;;;;12.90;8.20;;;;;;;1.03;100.00;98339.30;105898;1268;71077;-71
2023/03/10 00:48:50;;;;;;;13.40;8.10;;;;;;;1.04;100.00;98330.98;106137;1267;72795;-70
2023/03/10 00:51:18;;;;;;;12.00;7.40;;;;;;;1.04;100.00;98327.49;106086;1260;61295;-69
2023/03/10 00:53:45;;;;;;;13.90;7.60;;;;;;;1.04;100.00;98330.23;105820;1266;61166;-70
2023/03/10 00:56:15;;;;;;;13.30;7.40;;;;;;;1.05;100.00;98324.30;106323;1262;73640;-70
2023/03/10 00:58:44;;;;;;;11.00;7.40;;;;;;;1.06;100.00;98320.30;106027;1266;70628;-70
2023/03/10 01:01:22;;;;;;;10.50;7.00;;;;;;;1.07;100.00;98315.11;106034;1262;72671;-70
2023/03/10 01:03:51;;;;;;;11.40;6.30;;;;;;;1.08;100.00;98310.34;105936;1276;62707;-71
2023/03/10 01:06:18;;;;;;;11.50;6.50;;;;;;;1.07;100.00;98305.55;106050;1265;61225;-72
2023/03/10 01:08:45;;;;;;;10.60;6.80;;;;;;;1.06;100.00;98303.40;106214;1265;73574;-70
2023/03/10 01:11:17;;;;;;;9.60;6.00;;;;;;;1.05;100.00;98300.24;105960;1266;69678;-69
2023/03/10 01:13:44;;;;;;;11.00;6.40;;;;;;;1.02;100.00;98290.41;106113;1264;72000;-71
2023/03/10 01:16:12;;;;;;;9.60;6.20;;;;;;;1.01;100.00;98284.45;106004;1266;61207;-70
2023/03/10 01:18:39;;;;;;;10.40;6.60;;;;;;;1.01;100.00;98279.09;106113;1264;61225;-71
2023/03/10 01:21:06;;;;;;;10.00;5.90;;;;;;;1.02;100.00;98277.91;106274;1265;73582;-70
2023/03/10 01:23:33;;;;;;;10.10;6.20;;;;;;;1.03;100.00;98270.73;105965;1266;70206;-72
2023/03/10 01:26:00;;;;;;;10.70;6.30;;;;;;;1.03;100.00;98263.35;105890;1260;72482;-72
2023/03/10 01:28:27;;;;;;;10.90;6.50;;;;;;;1.04;100.00;98254.23;106106;1260;60726;-70
2023/03/10 01:30:54;;;;;;;9.00;5.80;;;;;;;1.05;100.00;98251.33;106268;1260;61173;-69
2023/03/10 01:33:20;;;;;;;9.30;6.20;;;;;;;1.04;100.00;98240.39;106128;1260;72516;-70
2023/03/10 01:35:51;;;;;;;10.40;6.20;;;;;;;1.03;100.00;98230.13;105889;1266;69576;-70
2023/03/10 01:38:20;;;;;;;9.50;5.90;;;;;;;1.03;100.00;98228.36;105915;1261;71527;-72
2023/03/10 01:40:52;;;;;;;9.70;5.90;;;;;;;1.05;100.00;98221.20;106158;1266;61151;-69
2023/03/10 01:43:19;;;;;;;10.50;6.60;;;;;;;1.05;100.00;98218.23;106036;1264;61241;-72
2023/03/10 01:45:45;;;;;;;9.00;5.80;;;;;;;1.04;100.00;98209.77;105932;1265;74951;-70
2023/03/10 01:48:15;;;;;;;9.20;5.90;;;;;;;1.04;100.00;98197.52;106004;1261;61841;-70
2023/03/10 01:50:47;;;;;;;10.90;6.50;;;;;;;1.04;100.00;98192.42;106362;1262;72422;-71
2023/03/10 01:53:17;;;;;;;9.50;5.80;;;;;;;1.04;100.00;98183.58;105846;1260;61331;-71
2023/03/10 01:55:52;;;;;;;10.80;6.30;;;;;;;1.05;100.00;98173.92;106076;1263;61250;-70
2023/03/10 01:58:22;;;;;;;9.90;6.00;;;;;;;1.03;100.00;98168.13;106096;1264;74552;-69
2023/03/10 02:00:51;;;;;;;10.20;6.50;;;;;;;1.03;100.00;98163.54;106013;1262;71037;-69
2023/03/10 02:03:28;;;;;;;10.30;6.30;;;;;;;1.03;100.00;98159.48;105857;1262;71223;-71
2023/03/10 02:05:58;;;;;;;9.90;6.10;;;;;;;1.03;100.00;98153.50;106145;1264;61365;-70
2023/03/10 02:08:30;;;;;;;12.70;6.10;;;;;;;1.04;100.00;98147.20;106285;1263;61247;-70
2023/03/10 02:10:58;;;;;;;11.30;6.40;;;;;;;1.05;100.00;98144.41;106888;1263;73196;-71
2023/03/10 02:13:25;;;;;;;8.60;5.50;;;;;;;1.05;100.00;98141.27;106433;1261;70901;-70
2023/03/10 02:15:52;;;;;;;9.90;6.00;;;;;;;1.06;100.00;98132.79;106647;1265;72381;-70
2023/03/10 02:18:20;;;;;;;8.80;5.60;;;;;;;1.08;100.00;98125.50;106674;1265;61740;-70
2023/03/10 02:20:59;;;;;;;8.00;5.10;;;;;;;1.08;100.00;98116.05;106617;1260;60344;-70
2023/03/10 02:23:58;;;;;;;8.80;5.60;;;;;;;1.09;100.00;98104.87;106611;1262;73222;-70
2023/03/10 02:26:39;;;;;;;8.20;5.10;;;;;;;1.09;100.00;98095.40;106682;1260;71108;-71
2023/03/10 02:29:11;;;;;;;9.40;5.50;;;;;;;1.09;100.00;98096.08;106842;1260;72937;-70
2023/03/10 02:31:38;;;;;;;10.70;6.10;;;;;;;1.10;100.00;98093.55;106081;1260;61157;-70
2023/03/10 02:34:05;;;;;;;9.30;5.30;;;;;;;1.10;100.00;98087.25;106433;1261;61133;-70
2023/03/10 02:36:32;;;;;;;12.80;5.80;;;;;;;1.12;100.00;98082.58;106534;1263;73166;-69
2023/03/10 02:38:59;;;;;;;9.50;6.00;;;;;;;1.13;100.00;98076.82;106414;1264;71009;-71
2023/03/10 02:41:29;;;;;;;8.70;5.20;;;;;;;1.14;100.00;98070.77;106500;1260;71006;-70
2023/03/10 02:43:58;;;;;;;8.50;5.20;;;;;;;1.16;100.00;98063.27;106491;1260;61305;-70
2023/03/10 02:46:26;;;;;;;8.60;5.10;;;;;;;1.17;100.00;98060.00;105993;1261;61306;-71
2023/03/10 02:48:53;;;;;;;9.90;5.20;;;;;;;1.19;100.00;98056.61;106694;1266;74685;-72
2023/03/10 02:51:33;;;;;;;9.60;5.40;;;;;;;1.21;100.00;98053.63;106918;1260;71242;-70
2023/03/10 02:54:01;;;;;;;9.00;5.50;;;;;;;1.23;100.00;98054.57;105979;1263;71499;-74
2023/03/10 02:56:33;;;;;;;8.90;5.30;;;;;;;1.26;100.00;98051.33;108491;1260;60215;-71
2023/03/10 02:59:08;;;;;;;9.60;5.50;;;;;;;1.28;100.00;98047.65;108602;1260;59480;-72
2023/03/10 03:01:35;;;;;;;8.60;5.50;;;;;;;1.30;100.00;98038.12;108179;1266;74786;-70
2023/03/10 03:04:03;;;;;;;10.80;5.40;;;;;;;1.31;100.00;98033.27;106051;1264;69671;-70
2023/03/10 03:06:30;;;;;;;7.30;4.70;;;;;;;1.31;100.00;98029.09;107510;1263;71162;-71
2023/03/10 03:08:59;;;;;;;6.40;4.20;;;;;;;1.31;100.00;98037.25;106215;1261;61298;-69
2023/03/10 03:11:26;;;;;;;6.70;4.10;;;;;;;1.33;100.00;98039.75;106073;1263;61275;-70
2023/03/10 03:13:53;;;;;;;7.70;4.60;;;;;;;1.33;100.00;98027.10;105790;1260;74038;-70
2023/03/10 03:16:20;;;;;;;6.60;4.60;;;;;;;1.33;100.00;98010.45;105913;1260;71055;-70
2023/03/10 03:18:47;;;;;;;6.80;4.60;;;;;;;1.31;100.00;98000.23;106261;1260;71521;-70
2023/03/10 03:21:16;;;;;;;7.70;4.20;;;;;;;1.30;100.00;97998.80;105942;1260;61516;-69
2023/03/10 03:23:46;;;;;;;6.60;3.90;;;;;;;1.30;100.00;97991.35;106071;1266;61184;-69
2023/03/10 03:26:21;;;;;;;8.00;4.00;;;;;;;1.30;100.00;97989.39;105822;1261;74744;-70
2023/03/10 03:28:48;;;;;;;7.50;3.90;;;;;;;1.29;100.00;97977.67;106254;1266;69109;-70
2023/03/10 03:31:17;;;;;;;6.50;4.30;;;;;;;1.29;100.00;97976.66;105903;1260;71249;-71
2023/03/10 03:33:46;;;;;;;6.70;4.40;;;;;;;1.30;100.00;97966.63;105977;1260;61263;-70
2023/03/10 03:36:13;;;;;;;6.50;4.10;;;;;;;1.31;100.00;97964.36;106049;1261;61727;-70
2023/03/10 03:38:41;;;;;;;5.80;3.90;;;;;;;1.31;100.00;97960.05;106268;1261;74130;-70
2023/03/10 03:41:09;;;;;;;5.80;3.50;;;;;;;1.31;100.00;97954.98;106079;1263;71322;-70
2023/03/10 03:43:36;;;;;;;6.00;3.90;;;;;;;1.29;100.00;97949.42;106108;1263;71800;-71
2023/03/10 03:46:03;;;;;;;5.70;3.30;;;;;;;1.28;100.00;97943.47;105812;1264;62875;-70
2023/03/10 03:48:30;;;;;;;5.10;3.30;;;;;;;1.28;100.00;97941.10;106151;1263;61270;-70
2023/03/10 03:50:57;;;;;;;5.10;3.40;;;;;;;1.29;100.00;97938.34;106138;1260;74395;-71
2023/03/10 03:53:24;;;;;;;5.50;3.60;;;;;;;1.30;100.00;97943.10;105875;1264;71158;-71
2023/03/10 03:55:54;;;;;;;4.60;3.20;;;;;;;1.30;100.00;97940.09;105757;1266;71348;-72
2023/03/10 03:58:21;;;;;;;4.90;3.10;;;;;;;1.32;100.00;97939.41;106000;1260;61251;-70
2023/03/10 04:00:48;;;;;;;4.70;3.00;;;;;;;1.33;100.00;97929.34;106370;1260;61282;-70
2023/03/10 04:03:17;;;;;;;5.10;3.00;;;;;;;1.32;100.00;97926.52;105872;1263;73761;-71
2023/03/10 04:05:44;;;;;;;5.60;3.00;;;;;;;1.33;100.00;97914.75;105935;1266;70113;-72
2023/03/10 04:08:14;;;;;;;3.90;2.90;;;;;;;1.31;100.00;97910.72;105877;1260;70348;-70
2023/03/10 04:10:41;;;;;;;5.30;3.00;;;;;;;1.31;100.00;97912.80;106028;1260;61944;-70
2023/03/10 04:13:08;;;;;;;4.30;2.90;;;;;;;1.33;100.00;97912.42;106053;1260;61762;-71
2023/03/10 04:15:37;;;;;;;4.20;3.00;;;;;;;1.35;100.00;97917.79;105969;1267;74706;-70
2023/03/10 04:18:04;;;;;;;4.20;2.80;;;;;;;1.36;100.00;97911.05;105978;1261;71289;-71
2023/03/10 04:20:35;;;;;;;4.70;3.00;;;;;;;1.35;100.00;97901.20;106065;1262;71233;-71
2023/03/10 04:23:03;;;;;;;4.30;3.00;;;;;;;1.36;100.00;97911.38;105991;1261;61414;-70
2023/03/10 04:25:30;;;;;;;5.10;3.20;;;;;;;1.38;100.00;97919.67;106038;1260;61351;-73
2023/03/10 04:27:57;;;;;;;5.30;3.20;;;;;;;1.38;100.00;97928.16;106020;1261;74656;-70
2023/03/10 04:30:28;;;;;;;4.60;2.90;;;;;;;1.39;100.00;97935.23;106087;1260;69753;-69
2023/03/10 04:32:59;;;;;;;4.70;3.30;;;;;;;1.39;100.00;97927.33;106484;1260;71100;-69
2023/03/10 04:35:26;;;;;;;5.00;2.60;;;;;;;1.39;100.00;97913.98;106076;1260;61402;-72
2023/03/10 04:37:53;;;;;;;4.90;3.30;;;;;;;1.39;100.00;97914.70;106017;1264;61202;-72
2023/03/10 04:40:20;;;;;;;3.80;2.50;;;;;;;1.39;100.00;97926.52;106206;1260;72715;-71
2023/03/10 04:42:47;;;;;;;3.50;2.70;;;;;;;1.40;100.00;97919.70;106151;1260;69111;-70
2023/03/10 04:45:14;;;;;;;5.00;2.60;;;;;;;1.42;100.00;97906.80;106018;1260;72700;-70
2023/03/10 04:47:41;;;;;;;4.90;3.10;;;;;;;1.43;100.00;97914.63;105915;1263;61229;-71
2023/03/10 04:50:10;;;;;;;3.90;2.70;;;;;;;1.44;100.00;97914.77;106071;1263;61332;-71
2023/03/10 04:52:37;;;;;;;4.40;3.10;;;;;;;1.44;100.00;97909.50;106100;1259;73700;-71
2023/03/10 04:55:04;;;;;;;4.00;3.00;;;;;;;1.47;100.00;97906.40;105772;1260;71038;-70
2023/03/10 04:57:31;;;;;;;3.90;2.80;;;;;;;1.50;100.00;97904.22;105942;1261;72566;-73
2023/03/10 04:59:59;;;;;;;3.70;2.40;;;;;;;1.52;100.00;97910.77;105814;1266;61384;-69
2023/03/10 05:02:31;;;;;;;4.20;2.80;;;;;;;1.53;100.00;97923.05;106051;1260;61366;-71
2023/03/10 05:04:58;;;;;;;4.10;2.80;;;;;;;1.54;100.00;97916.88;105809;1260;74743;-70
2023/03/10 05:07:25;;;;;;;3.80;2.90;;;;;;;1.56;100.00;97913.45;105887;1260;71221;-72
2023/03/10 05:09:52;;;;;;;4.20;2.80;;;;;;;1.56;100.00;97909.58;105896;1260;72578;-70
2023/03/10 05:12:19;;;;;;;4.70;2.80;;;;;;;1.56;100.00;97913.44;105897;1261;61359;-70
2023/03/10 05:14:45;;;;;;;3.70;2.80;;;;;;;1.56;100.00;97918.87;105948;1261;61205;-72
2023/03/10 05:17:12;;;;;;;5.10;3.40;;;;;;;1.58;100.00;97928.49;105950;1263;75234;-71
2023/03/10 05:19:39;;;;;;;3.70;2.80;;;;;;;1.57;100.00;97947.46;106042;1259;69733;-72
2023/03/10 05:22:11;;;;;;;4.70;3.30;;;;;;;1.58;100.00;97942.85;105968;1260;73821;-70
2023/03/10 05:24:38;;;;;;;4.40;3.10;;;;;;;1.63;100.00;97942.77;105961;1264;61270;-71
2023/03/10 05:27:07;;;;;;;4.00;3.00;;;;;;;1.69;100.00;97935.99;106110;1260;61676;-70
2023/03/10 05:29:34;;;;;;;4.40;2.90;;;;;;;1.73;100.00;97949.83;105789;1260;75923;-71
2023/03/10 05:32:01;;;;;;;4.40;3.00;;;;;;;1.73;100.00;97954.33;106001;1260;69861;-73
2023/03/10 05:34:27;;;;;;;4.10;2.80;;;;;;;1.74;100.00;97951.05;106153;1259;72016;-72
2023/03/10 05:36:55;;;;;;;5.10;3.70;;;;;;;1.78;100.00;97955.23;105939;1260;61277;-72
2023/03/10 05:39:22;;;;;;;4.30;3.30;;;;;;;1.85;100.00;97957.43;106212;1260;61240;-71
2023/03/10 05:41:49;;;;;;;4.30;3.10;;;;;;;1.91;100.00;97954.87;106023;1267;72124;-72
2023/03/10 05:44:19;;;;;;;4.40;3.60;;;;;;;1.95;100.00;97961.58;105990;1262;70515;-73
2023/03/10 05:46:46;;;;;;;4.10;3.30;;;;;;;1.97;100.00;97958.79;106164;1259;71568;-72
2023/03/10 05:49:13;;;;;;;3.70;3.20;;;;;;;1.99;100.00;97957.43;106137;1260;61248;-70
2023/03/10 05:51:40;;;;;;;4.30;3.20;;;;;;;1.99;100.00;97957.23;106178;1260;61776;-71
2023/03/10 05:54:08;;;;;;;4.20;2.80;;;;;;;2.00;100.00;97963.92;106060;1259;75288;-72
2023/03/10 05:56:35;;;;;;;3.90;3.00;;;;;;;2.00;100.00;97968.71;106448;1261;72627;-73
2023/03/10 05:59:02;;;;;;;3.80;2.80;;;;;;;2.01;100.00;97971.41;108002;1260;72427;-74
2023/03/10 06:01:29;;;;;;;3.90;2.70;;;;;;;2.00;100.00;97972.45;106513;1261;62502;-71
2023/03/10 06:03:56;;;;;;;4.00;2.90;;;;;;;1.99;100.00;97979.33;106075;1259;61472;-72
2023/03/10 06:06:23;;;;;;;5.50;3.00;;;;;;;2.00;100.00;97983.08;106373;1259;74760;-71
2023/03/10 06:08:53;;;;;;;4.40;2.70;;;;;;;2.03;100.00;97984.20;105966;1260;72919;-73
2023/03/10 06:11:22;;;;;;;3.90;2.90;;;;;;;2.05;100.00;97990.63;106097;1261;70955;-72
2023/03/10 06:13:49;;;;;;;4.80;3.00;;;;;;;2.04;100.00;97993.58;105957;1262;61308;-72
2023/03/10 06:16:16;;;;;;;5.30;2.90;;;;;;;2.03;100.00;97995.38;106139;1263;61170;-71
2023/03/10 06:18:45;;;;;;;3.80;2.80;;;;;;;2.01;100.00;98001.20;106314;1259;74796;-74
2023/03/10 06:21:13;;;;;;;4.30;2.80;;;;;;;1.99;100.00;97998.34;105805;1266;69801;-72
2023/03/10 06:23:41;;;;;;;5.90;3.10;;;;;;;1.99;100.00;98000.09;106022;1263;72731;-72
2023/03/10 06:26:11;;;;;;;5.80;3.10;;;;;;;1.99;100.00;98012.23;105980;1259;61260;-72
2023/03/10 06:28:40;;;;;;;4.40;2.70;;;;;;;1.99;100.00;98013.51;106191;1259;61254;-72
2023/03/10 06:31:19;;;;;;;5.30;2.50;;;;;;;2.00;100.00;98019.19;105996;1260;73957;-72
2023/03/10 06:33:47;;;;;;;4.00;2.40;;;;;;;1.99;100.00;98015.73;106072;1259;70895;-74
2023/03/10 06:36:15;;;;;;;4.20;2.50;;;;;;;1.99;100.00;98013.27;106300;1259;72770;-71
2023/03/10 06:38:42;;;;;;;3.20;2.30;;;;;;;1.99;100.00;98021.87;105970;1259;61322;-72
2023/03/10 06:41:10;;;;;;;3.30;2.60;;;;;;;1.98;100.00;98021.95;105982;1260;61172;-71
2023/03/10 06:43:37;;;;;;;3.10;2.40;;;;;;;1.99;100.00;98031.58;106118;1260;73476;-71
2023/03/10 06:46:05;;;;;;;3.30;2.50;;;;;;;2.03;100.00;98031.70;106304;1259;69876;-71
2023/03/10 06:48:33;;;;;;;3.10;2.40;;;;;;;2.08;100.00;98031.34;106135;1260;72097;-72
2023/03/10 06:51:01;;;;;;;3.70;2.50;;;;;;;2.09;100.00;98030.10;106135;1260;61271;-73
2023/03/10 06:53:28;;;;;;;4.30;2.70;;;;;;;2.07;100.00;98035.11;106221;1260;61360;-72
2023/03/10 06:56:10;;;;;;;3.00;2.30;;;;;;;2.06;100.00;98038.35;106116;1262;74183;-72
2023/03/10 06:58:37;;;;;;;4.10;2.60;;;;;;;2.03;100.00;98039.73;105982;1267;69716;-71
2023/03/10 07:01:04;;;;;;;4.00;2.70;;;;;;;2.06;100.00;98043.71;106073;1265;71254;-72
2023/03/10 07:03:34;;;;;;;5.10;2.70;;;;;;;2.10;100.00;98051.80;105927;1259;61884;-72
2023/03/10 07:06:01;;;;;;;4.00;2.90;;;;;;;2.13;100.00;98055.77;106189;1261;61705;-71
2023/03/10 07:08:28;;;;;;;3.60;2.40;;;;;;;2.15;100.00;98057.96;106044;1260;73168;-71
2023/03/10 07:10:56;;;;;;;4.60;2.40;;;;;;;2.14;100.00;98064.31;105954;1265;69131;-72
2023/03/10 07:13:25;;;;;;;2.90;2.10;;;;;;;2.16;100.00;98062.33;106077;1265;71272;-72
2023/03/10 07:15:52;;;;;;;4.40;2.30;;;;;;;2.19;100.00;98062.19;106266;1259;61321;-72
2023/03/10 07:18:19;;;;;;;3.30;2.50;;;;;;;2.23;100.00;98066.90;105968;1259;61663;-72
2023/03/10 07:20:47;;;;;;;3.70;2.50;;;;;;;2.26;100.00;98058.52;106057;1260;74699;-72
2023/03/10 07:23:14;;;;;;;4.50;2.70;;;;;;;2.29;100.00;98064.54;106263;1262;69876;-72
2023/03/10 07:25:41;;;;;;;3.70;2.70;;;;;;;2.28;100.00;98064.41;106069;1259;72819;-72
2023/03/10 07:28:08;;;;;;;4.40;2.40;;;;;;;2.29;100.00;98067.79;106251;1260;61388;-73
2023/03/10 07:30:36;;;;;;;4.90;3.20;;;;;;;2.32;100.00;98072.70;106939;1261;60674;-71
2023/03/10 07:33:03;;;;;;;4.80;2.90;;;;;;;2.38;100.00;98076.33;106564;1263;75916;-74
2023/03/10 07:35:31;;;;;;;4.50;2.70;;;;;;;2.45;100.00;98079.58;105919;1259;71203;-73
2023/03/10 07:38:00;;;;;;;4.80;3.00;;;;;;;2.50;100.00;98080.27;106406;1260;71500;-71
2023/03/10 07:40:28;;;;;;;4.10;2.90;;;;;;;2.56;100.00;98091.02;105998;1259;61622;-72
2023/03/10 07:42:54;;;;;;;4.50;2.90;;;;;;;2.60;100.00;98098.39;106004;1259;61228;-71
2023/03/10 07:45:22;;;;;;;4.20;2.80;;;;;;;2.59;100.00;98096.29;106372;1260;74425;-71
2023/03/10 07:47:49;;;;;;;5.60;3.70;;;;;;;2.59;100.00;98089.45;106240;1260;69868;-70
2023/03/10 07:50:17;;;;;;;4.40;3.30;;;;;;;2.63;100.00;98093.47;106220;1259;73162;-71
2023/03/10 07:52:45;;;;;;;4.00;2.90;;;;;;;2.66;100.00;98096.08;106050;1259;62594;-74
2023/03/10 07:55:12;;;;;;;4.60;3.40;;;;;;;2.70;100.00;98107.59;106179;1259;61148;-71
2023/03/10 07:57:39;;;;;;;4.50;3.00;;;;;;;2.74;100.00;98116.16;106325;1259;74377;-71
2023/03/10 08:00:07;;;;;;;4.30;3.00;;;;;;;2.76;100.00;98111.60;106310;1259;69544;-70
2023/03/10 08:02:34;;;;;;;4.60;2.80;;;;;;;2.73;100.00;98114.59;106217;1259;71111;-72
2023/03/10 08:05:01;;;;;;;4.00;2.50;;;;;;;2.71;100.00;98113.45;106006;1265;61237;-71
2023/03/10 08:07:29;;;;;;;5.40;3.40;;;;;;;2.66;100.00;98114.23;106236;1260;61132;-71
2023/03/10 08:09:58;;;;;;;4.90;3.20;;;;;;;2.67;100.00;98112.02;106356;1259;76152;-70
2023/03/10 08:12:25;;;;;;;5.60;3.20;;;;;;;2.68;100.00;98124.41;106127;1263;70095;-71
2023/03/10 08:14:55;;;;;;;5.30;3.20;;;;;;;2.74;100.00;98129.37;106043;1260;73696;-73
2023/03/10 08:17:24;;;;;;;5.30;3.30;;;;;;;2.79;100.00;98140.48;106058;1265;61366;-73
2023/03/10 08:19:51;;;;;;;5.50;3.20;;;;;;;2.84;100.00;98144.94;106513;1259;61097;-71
2023/03/10 08:22:18;;;;;;;4.00;2.80;;;;;;;2.83;100.00;98142.55;105923;1259;73692;-72
2023/03/10 08:24:48;;;;;;;4.70;3.00;;;;;;;2.76;99.74;98147.52;106272;1259;71443;-72
2023/03/10 08:27:15;;;;;;;5.40;3.40;;;;;;;2.75;99.88;98146.00;106333;1260;72350;-73
2023/03/10 08:29:42;;;;;;;4.40;2.90;;;;;;;2.72;99.91;98150.98;106625;1259;61274;-72
2023/03/10 08:32:11;;;;;;;4.90;3.20;;;;;;;2.70;99.86;98155.27;106205;1259;61278;-73
2023/03/10 08:34:43;;;;;;;5.40;3.10;;;;;;;2.73;99.99;98153.33;106121;1261;73261;-73
2023/03/10 08:37:13;;;;;;;6.00;3.20;;;;;;;2.83;100.00;98149.67;106374;1259;69980;-73
2023/03/10 08:39:40;;;;;;;3.80;2.50;;;;;;;2.88;99.99;98148.41;106187;1260;71459;-73
2023/03/10 08:42:12;;;;;;;4.80;2.50;;;;;;;2.83;99.47;98151.53;106018;1259;61334;-77
2023/03/10 08:44:40;;;;;;;6.00;3.60;;;;;;;2.82;99.94;98147.89;105848;1259;62255;-72
2023/03/10 08:47:11;;;;;;;9.30;5.20;;;;;;;2.89;99.93;98145.77;106298;1259;74703;-72
2023/03/10 08:49:38;;;;;;;17.00;9.50;;;;;;;3.01;100.00;98150.77;106227;1259;211560;-73
2023/03/10 08:52:08;;;;;;;6.80;3.90;;;;;;;3.15;100.00;98146.84;106183;1259;72406;-74
2023/03/10 08:54:35;;;;;;;5.80;4.20;;;;;;;3.22;99.81;98145.88;106012;1259;61225;-72
2023/03/10 08:57:02;;;;;;;5.00;3.40;;;;;;;3.31;99.98;98134.13;106394;1259;61351;-73
2023/03/10 08:59:29;;;;;;;6.00;3.70;;;;;;;3.41;99.88;98132.42;106409;1259;73994;-72
2023/03/10 09:01:56;;;;;;;5.30;3.50;;;;;;;3.51;99.96;98135.88;106320;1259;70116;-71
2023/03/10 09:04:25;;;;;;;4.60;2.80;;;;;;;3.50;98.61;98138.73;106043;1262;72114;-72
2023/03/10 09:06:52;;;;;;;4.20;3.00;;;;;;;3.51;98.26;98142.89;106216;1259;61294;-72
2023/03/10 09:09:19;;;;;;;4.50;2.60;;;;;;;3.56;98.70;98148.48;106239;1259;61630;-71
2023/03/10 09:11:46;;;;;;;4.50;2.90;;;;;;;3.57;97.70;98153.42;106056;1259;73300;-71
2023/03/10 09:14:15;;;;;;;4.00;3.00;;;;;;;3.62;98.24;98156.08;105971;1262;69683;-73
2023/03/10 09:16:45;;;;;;;3.60;2.30;;;;;;;3.68;97.99;98156.65;106133;1259;72845;-73
2023/03/10 09:19:13;;;;;;;4.50;2.50;;;;;;;3.73;97.84;98159.72;106003;1265;61229;-72
2023/03/10 09:21:41;;;;;;;3.30;2.20;;;;;;;3.75;97.54;98157.32;106230;1259;61360;-72
2023/03/10 09:24:11;;;;;;;4.80;2.60;;;;;;;3.75;96.82;98161.90;106018;1259;74885;-74
2023/03/10 09:26:38;;;;;;;3.90;2.50;;;;;;;3.77;97.28;98168.73;106129;1262;70038;-71
2023/03/10 09:29:08;;;;;;;5.30;3.00;;;;;;;3.79;97.06;98169.89;106334;1260;72794;-72
2023/03/10 09:31:38;;;;;;;3.70;2.70;;;;;;;3.82;97.04;98168.31;106394;1259;61277;-74
2023/03/10 09:34:07;;;;;;;4.50;2.90;;;;;;;3.89;97.47;98168.55;105950;1260;61266;-72
2023/03/10 09:36:34;;;;;;;4.30;2.60;;;;;;;3.95;97.31;98161.84;106228;1259;73553;-72
2023/03/10 09:39:02;;;;;;;4.10;2.90;;;;;;;4.05;97.40;98162.62;106200;1259;70167;-72
2023/03/10 09:41:51;;;;;;;3.20;2.40;;;;;;;4.15;97.23;98163.27;106224;1259;71141;-71
2023/03/10 09:44:33;;;;;;;3.90;2.60;;;;;;;4.33;97.20;98162.00;106150;1260;61275;-71
2023/03/10 09:47:09;;;;;;;4.20;2.70;;;;;;;4.53;97.50;98162.75;106379;1260;61798;-71
2023/03/10 09:49:42;;;;;;;3.90;2.60;;;;;;;4.67;96.87;98166.98;106600;1259;75202;-75
2023/03/10 09:52:33;;;;;;;4.00;2.50;;;;;;;4.76;96.36;98169.94;105942;1260;72462;-73
2023/03/10 09:55:13;;;;;;;3.80;2.70;;;;;;;4.83;94.66;98170.63;105897;1259;72824;-72
2023/03/10 09:57:40;;;;;;;4.10;2.60;;;;;;;4.89;94.64;98164.80;106092;1262;61261;-72
2023/03/10 10:00:28;;;;;;;3.60;2.30;;;;;;;4.94;94.54;98164.88;106258;1262;61379;-72
2023/03/10 10:03:22;;;;;;;3.40;2.40;;;;;;;5.01;94.28;98161.60;105847;1259;74451;-71
2023/03/10 10:05:52;;;;;;;3.20;2.20;;;;;;;5.11;94.14;98165.05;106256;1260;71208;-71
2023/03/10 10:08:26;;;;;;;3.40;2.50;;;;;;;5.21;94.09;98166.17;106113;1259;72662;-72
2023/03/10 10:10:57;;;;;;;4.10;2.70;;;;;;;5.32;93.70;98163.55;105913;1261;61281;-74
2023/03/10 10:13:29;;;;;;;3.70;2.80;;;;;;;5.35;93.00;98164.03;106277;1259;61257;-71
2023/03/10 10:16:21;;;;;;;3.30;2.30;;;;;;;5.29;92.38;98171.20;106139;1259;73219;-75
2023/03/10 10:19:13;;;;;;;3.90;2.70;;;;;;;5.09;90.87;98178.47;106208;1259;68769;-71
2023/03/10 10:21:49;;;;;;;5.20;2.70;;;;;;;4.84;90.80;98181.76;106039;1259;72540;-71
2023/03/10 10:24:17;;;;;;;5.00;2.90;;;;;;;4.75;91.99;98183.60;106170;1261;61181;-70
2023/03/10 10:26:44;;;;;;;4.70;2.80;;;;;;;4.74;92.90;98181.81;106219;1259;61274;-72
2023/03/10 10:29:22;;;;;;;4.00;2.80;;;;;;;4.77;93.11;98180.21;106168;1263;73590;-72
2023/03/10 10:32:03;;;;;;;4.50;3.50;;;;;;;4.75;92.89;98183.23;105745;1262;70091;-72
2023/03/10 10:34:31;;;;;;;4.90;3.10;;;;;;;4.69;92.56;98192.43;106086;1260;72547;-72
2023/03/10 10:36:58;;;;;;;4.70;3.00;;;;;;;4.63;92.59;98190.85;106296;1263;61365;-71
2023/03/10 10:39:35;;;;;;;4.50;2.80;;;;;;;4.59;92.68;98196.39;105967;1259;62914;-73
2023/03/10 10:42:20;;;;;;;4.60;3.10;;;;;;;4.48;92.77;98199.24;106299;1259;75777;-71
2023/03/10 10:44:50;;;;;;;5.10;3.30;;;;;;;4.50;93.51;98197.52;105758;1259;71553;-71
2023/03/10 10:47:46;;;;;;;4.60;2.90;;;;;;;4.53;93.72;98191.90;106022;1261;72415;-71
2023/03/10 10:50:21;;;;;;;5.00;3.50;;;;;;;4.58;93.91;98192.05;106138;1259;63360;-71
2023/03/10 10:53:19;;;;;;;5.10;3.30;;;;;;;4.67;94.03;98190.89;106167;1263;61595;-73
2023/03/10 10:55:59;;;;;;;4.90;3.00;;;;;;;4.72;93.75;98192.70;105890;1262;74232;-73
2023/03/10 10:58:35;;;;;;;3.50;2.40;;;;;;;4.77;93.64;98197.46;106207;1260;70144;-71
2023/03/10 11:01:05;;;;;;;3.70;2.40;;;;;;;4.78;92.96;98191.65;105899;1259;71304;-71
2023/03/10 11:03:43;;;;;;;3.30;2.40;;;;;;;4.67;92.11;98187.21;106018;1266;61299;-72
2023/03/10 11:06:28;;;;;;;4.40;3.00;;;;;;;4.65;92.90;98184.91;106235;1259;61129;-71
2023/03/10 11:09:13;;;;;;;3.60;2.60;;;;;;;4.68;93.29;98185.64;106243;1259;74766;-71
2023/03/10 11:12:06;;;;;;;4.50;3.00;;;;;;;4.72;93.18;98184.84;106211;1259;69695;-70
2023/03/10 11:14:56;;;;;;;3.30;2.50;;;;;;;4.76;93.64;98182.34;105938;1260;71533;-73
2023/03/10 11:17:35;;;;;;;3.40;2.30;;;;;;;4.77;93.10;98184.17;106418;1262;59882;-71
2023/03/10 11:20:13;;;;;;;3.20;2.30;;;;;;;4.74;92.89;98185.63;105979;1259;61280;-73
2023/03/10 11:23:05;;;;;;;3.30;2.20;;;;;;;4.69;92.62;98185.69;106199;1259;73676;-70
2023/03/10 11:25:47;;;;;;;3.80;2.30;;;;;;;4.63;92.35;98186.85;106047;1262;70213;-72
2023/03/10 11:28:26;;;;;;;3.20;1.90;;;;;;;4.50;92.11;98193.40;106035;1259;72666;-70
2023/03/10 11:31:43;;;;;;;3.60;2.20;;;;;;;4.46;92.67;98184.81;106144;1259;61158;-72
2023/03/10 11:34:21;;;;;;;3.80;2.20;;;;;;;4.49;93.00;98177.64;105957;1269;61256;-73
2023/03/10 11:37:38;;;;;;;3.90;2.30;;;;;;;4.52;93.26;98180.75;105645;1273;72875;-71
2023/03/10 11:40:26;;;;;;;3.20;2.10;;;;;;;4.53;93.48;98187.55;105717;1259;71280;-71
2023/03/10 11:43:07;;;;;;;3.50;2.30;;;;;;;4.48;93.14;98184.38;106096;1259;71142;-73